createdAt,value
2018-07-30T00:00:07.234Z,3.47
2018-07-30T00:02:43.325Z,3.93
2018-07-30T00:05:12.189Z,3.40
2018-07-30T00:07:41.070Z,3.60
2018-07-30T00:10:09.680Z,3.47
2018-07-30T00:12:38.640Z,3.40
2018-07-30T00:15:07.230Z,3.53
2018-07-30T00:17:35.818Z,3.47
2018-07-30T00:20:05.020Z,3.60
2018-07-30T00:22:33.788Z,3.43
2018-07-30T00:25:02.291Z,3.47
2018-07-30T00:27:30.818Z,3.77
2018-07-30T00:29:59.418Z,3.83
2018-07-30T00:32:27.916Z,3.60
2018-07-30T00:34:57.436Z,3.43
2018-07-30T00:37:25.944Z,3.93
2018-07-30T00:39:54.563Z,3.33
2018-07-30T00:42:23.152Z,3.37
2018-07-30T00:44:51.354Z,3.23
2018-07-30T00:47:20.026Z,3.40
2018-07-30T00:49:48.613Z,3.40
2018-07-30T00:52:17.228Z,3.33
2018-07-30T00:54:45.812Z,3.87
2018-07-30T00:57:14.508Z,3.70
2018-07-30T00:59:43.195Z,3.70
2018-07-30T01:02:12.014Z,3.90
2018-07-30T01:04:40.351Z,4.07
2018-07-30T01:07:09.308Z,3.63
2018-07-30T01:09:37.908Z,4.20
2018-07-30T01:12:06.469Z,4.10
2018-07-30T01:14:35.094Z,4.03
2018-07-30T01:17:03.637Z,4.30
2018-07-30T01:19:32.252Z,4.13
2018-07-30T01:22:00.908Z,3.90
2018-07-30T01:24:29.649Z,3.83
2018-07-30T01:26:58.199Z,4.30
2018-07-30T01:29:26.757Z,4.23
2018-07-30T01:31:55.379Z,3.80
2018-07-30T01:34:23.899Z,4.20
2018-07-30T01:36:52.455Z,3.80
2018-07-30T01:39:20.983Z,4.27
2018-07-30T01:41:49.595Z,4.30
2018-07-30T01:44:18.171Z,3.53
2018-07-30T01:46:46.801Z,4.00
2018-07-30T01:49:15.357Z,3.40
2018-07-30T01:51:43.913Z,3.50
2018-07-30T01:54:12.570Z,3.80
2018-07-30T01:56:41.153Z,3.80
2018-07-30T01:59:09.753Z,3.57
2018-07-30T02:01:38.435Z,3.83
2018-07-30T02:04:07.278Z,3.90
2018-07-30T02:06:35.929Z,4.17
2018-07-30T02:09:07.675Z,4.40
2018-07-30T02:11:36.191Z,4.50
2018-07-30T02:14:05.374Z,4.03
2018-07-30T02:16:33.965Z,4.50
2018-07-30T02:19:02.647Z,4.20
2018-07-30T02:21:31.788Z,3.93
2018-07-30T02:24:00.366Z,3.67
2018-07-30T02:26:28.949Z,3.50
2018-07-30T02:28:57.598Z,4.03
2018-07-30T02:31:26.171Z,3.70
2018-07-30T02:33:55.087Z,3.87
2018-07-30T02:36:23.768Z,3.90
2018-07-30T02:38:52.390Z,3.77
2018-07-30T02:41:21.752Z,3.83
2018-07-30T02:43:50.461Z,4.03
2018-07-30T02:46:19.092Z,3.90
2018-07-30T02:48:47.739Z,3.57
2018-07-30T02:51:16.490Z,3.93
2018-07-30T02:53:45.162Z,3.60
2018-07-30T02:56:13.752Z,4.10
2018-07-30T02:58:42.419Z,4.80
2018-07-30T03:01:11.080Z,4.97
2018-07-30T03:03:40.122Z,4.33
2018-07-30T03:06:08.795Z,3.37
2018-07-30T03:08:37.386Z,3.90
2018-07-30T03:11:06.017Z,4.20
2018-07-30T03:13:35.168Z,4.40
2018-07-30T03:16:03.754Z,4.20
2018-07-30T03:18:32.438Z,3.77
2018-07-30T03:21:01.000Z,3.87
2018-07-30T03:23:29.693Z,4.10
2018-07-30T03:25:58.268Z,4.50
2018-07-30T03:28:26.868Z,4.13
2018-07-30T03:30:55.563Z,3.87
2018-07-30T03:33:24.276Z,3.63
2018-07-30T03:35:52.821Z,3.70
2018-07-30T03:38:23.031Z,4.50
2018-07-30T03:40:51.586Z,4.00
2018-07-30T03:43:20.334Z,4.20
2018-07-30T03:45:48.986Z,3.60
2018-07-30T03:48:17.571Z,4.13
2018-07-30T03:50:46.084Z,3.80
2018-07-30T03:53:14.637Z,3.70
2018-07-30T03:55:43.224Z,4.20
2018-07-30T03:58:12.375Z,4.83
2018-07-30T04:00:40.915Z,4.77
2018-07-30T04:03:09.494Z,5.03
2018-07-30T04:05:38.245Z,4.73
2018-07-30T04:08:06.864Z,4.63
2018-07-30T04:10:35.350Z,4.20
2018-07-30T04:13:03.936Z,4.70
2018-07-30T04:15:32.469Z,4.93
2018-07-30T04:18:01.067Z,5.00
2018-07-30T04:20:29.651Z,4.30
2018-07-30T04:22:58.279Z,4.53
2018-07-30T04:25:26.820Z,4.40
2018-07-30T04:27:56.223Z,4.47
2018-07-30T04:30:25.423Z,4.23
2018-07-30T04:32:54.095Z,4.03
2018-07-30T04:35:22.881Z,4.17
2018-07-30T04:37:53.344Z,4.30
2018-07-30T04:40:21.738Z,4.03
2018-07-30T04:42:49.978Z,4.53
2018-07-30T04:45:18.677Z,4.43
2018-07-30T04:47:49.610Z,4.37
2018-07-30T04:50:18.295Z,4.40
2018-07-30T04:52:47.329Z,4.23
2018-07-30T04:55:16.037Z,4.00
2018-07-30T04:57:44.709Z,4.93
2018-07-30T05:00:14.753Z,3.90
2018-07-30T05:02:43.457Z,3.93
2018-07-30T05:05:12.067Z,4.60
2018-07-30T05:07:40.579Z,3.93
2018-07-30T05:10:09.182Z,4.40
2018-07-30T05:12:37.691Z,4.13
2018-07-30T05:15:05.945Z,3.80
2018-07-30T05:17:34.609Z,4.75
2018-07-30T05:20:03.340Z,4.00
2018-07-30T05:22:34.413Z,5.03
2018-07-30T05:25:03.153Z,5.15
2018-07-30T05:27:32.571Z,4.50
2018-07-30T05:30:01.773Z,4.92
2018-07-30T05:32:31.055Z,4.30
2018-07-30T05:35:00.735Z,5.42
2018-07-30T05:37:29.807Z,5.00
2018-07-30T05:42:54.216Z,5.28
2018-07-30T05:45:23.178Z,5.00
2018-07-30T05:47:52.009Z,5.15
2018-07-30T05:50:20.688Z,4.35
2018-07-30T05:52:49.273Z,4.80
2018-07-30T05:55:17.772Z,4.83
2018-07-30T05:57:46.589Z,6.70
2018-07-30T06:00:15.331Z,6.62
2018-07-30T06:02:44.045Z,10.20
2018-07-30T06:05:12.598Z,9.13
2018-07-30T06:07:41.928Z,10.00
2018-07-30T06:10:10.445Z,10.55
2018-07-30T06:12:38.992Z,10.10
2018-07-30T06:15:08.568Z,7.10
2018-07-30T06:17:37.334Z,5.85
2018-07-30T06:20:11.516Z,5.87
2018-07-30T06:22:40.426Z,5.15
2018-07-30T06:25:09.076Z,5.15
2018-07-30T06:27:37.660Z,4.58
2018-07-30T06:30:08.055Z,4.72
2018-07-30T06:32:37.094Z,5.25
2018-07-30T06:35:05.865Z,5.03
2018-07-30T06:37:34.432Z,5.05
2018-07-30T06:40:02.982Z,4.70
2018-07-30T06:42:32.306Z,4.80
2018-07-30T06:45:01.448Z,4.85
2018-07-30T06:47:30.150Z,4.80
2018-07-30T06:49:58.643Z,4.45
2018-07-30T06:52:27.184Z,4.60
2018-07-30T06:54:56.501Z,4.50
2018-07-30T06:57:25.077Z,5.25
2018-07-30T06:59:53.329Z,4.72
2018-07-30T07:02:21.953Z,4.60
2018-07-30T07:04:50.496Z,4.53
2018-07-30T07:07:19.083Z,3.95
2018-07-30T07:09:47.696Z,4.60
2018-07-30T07:12:18.110Z,3.87
2018-07-30T07:14:46.685Z,4.78
2018-07-30T07:17:15.267Z,4.55
2018-07-30T07:19:44.324Z,4.50
2018-07-30T07:22:13.385Z,4.50
2018-07-30T07:24:42.144Z,4.42
2018-07-30T07:27:10.738Z,4.90
2018-07-30T07:29:39.543Z,5.78
2018-07-30T07:32:08.207Z,5.70
2018-07-30T07:34:37.205Z,5.62
2018-07-30T07:37:06.086Z,7.53
2018-07-30T07:39:34.743Z,8.15
2018-07-30T07:42:03.340Z,7.85
2018-07-30T07:44:32.289Z,8.60
2018-07-30T07:47:00.827Z,8.20
2018-07-30T07:49:29.527Z,8.48
2018-07-30T07:51:58.427Z,8.35
2018-07-30T07:54:27.015Z,9.30
2018-07-30T07:56:55.611Z,7.95
2018-07-30T07:59:24.152Z,8.33
2018-07-30T08:01:52.941Z,8.95
2018-07-30T08:04:23.380Z,7.67
2018-07-30T08:06:51.962Z,7.40
2018-07-30T08:09:27.279Z,7.22
2018-07-30T08:11:55.847Z,7.37
2018-07-30T08:14:24.537Z,8.85
2018-07-30T08:16:53.282Z,8.23
2018-07-30T08:19:21.975Z,9.48
2018-07-30T08:21:53.110Z,8.65
2018-07-30T08:24:21.819Z,7.40
2018-07-30T08:26:50.859Z,5.37
2018-07-30T08:29:19.406Z,8.40
2018-07-30T08:31:48.040Z,11.35
2018-07-30T08:34:16.933Z,11.48
2018-07-30T08:36:45.510Z,10.50
2018-07-30T08:39:14.658Z,8.93
2018-07-30T08:41:43.150Z,11.12
2018-07-30T08:44:11.834Z,11.28
2018-07-30T08:46:40.504Z,11.10
2018-07-30T08:49:09.060Z,11.68
2018-07-30T08:51:38.588Z,10.20
2018-07-30T08:54:07.387Z,10.10
2018-07-30T08:56:36.766Z,9.93
2018-07-30T08:59:06.286Z,9.80
2018-07-30T09:04:27.115Z,9.55
2018-07-30T09:07:01.873Z,7.42
2018-07-30T09:24:17.923Z,6.10
2018-07-30T09:36:27.221Z,3.90
2018-07-30T09:38:56.486Z,3.90
2018-07-30T09:41:25.134Z,4.15
2018-07-30T09:43:53.514Z,4.00
2018-07-30T09:46:22.159Z,3.15
2018-07-30T09:48:50.820Z,3.12
2018-07-30T09:51:19.419Z,3.40
2018-07-30T09:53:48.198Z,3.60
2018-07-30T09:56:16.929Z,3.17
2018-07-30T09:58:45.448Z,3.22
2018-07-30T10:01:32.380Z,3.22
2018-07-30T10:04:01.603Z,3.52
2018-07-30T10:06:30.283Z,3.33
2018-07-30T10:08:59.047Z,3.10
2018-07-30T10:11:32.191Z,3.37
2018-07-30T10:14:00.807Z,3.20
2018-07-30T10:16:28.987Z,3.00
2018-07-30T10:18:57.173Z,3.40
2018-07-30T10:21:25.764Z,3.20
2018-07-30T10:23:54.241Z,3.50
2018-07-30T10:26:22.818Z,3.22
2018-07-30T10:28:51.370Z,3.17
2018-07-30T10:31:19.880Z,3.10
2018-07-30T10:33:48.594Z,3.40
2018-07-30T10:36:17.674Z,3.05
2018-07-30T10:38:46.203Z,3.08
2018-07-30T10:41:14.710Z,3.30
2018-07-30T10:43:43.270Z,3.02
2018-07-30T10:46:11.871Z,2.87
2018-07-30T10:48:40.398Z,3.12
2018-07-30T10:51:08.956Z,3.27
2018-07-30T10:53:37.177Z,2.95
2018-07-30T10:56:05.799Z,3.58
2018-07-30T10:58:34.358Z,3.10
2018-07-30T11:01:03.002Z,3.00
2018-07-30T11:03:31.446Z,3.30
2018-07-30T11:05:59.950Z,3.35
2018-07-30T11:08:28.487Z,3.33
2018-07-30T11:10:57.037Z,3.35
2018-07-30T11:13:26.160Z,3.00
2018-07-30T11:15:54.741Z,3.08
2018-07-30T11:18:23.322Z,3.02
2018-07-30T11:20:52.332Z,3.52
2018-07-30T11:32:18.741Z,3.20
2018-07-30T11:34:48.647Z,3.62
2018-07-30T11:40:25.969Z,3.37
2018-07-30T11:43:00.777Z,3.33
2018-07-30T11:46:11.905Z,3.12
2018-07-30T11:48:40.943Z,3.25
2018-07-30T11:51:09.529Z,3.27
2018-07-30T11:53:38.051Z,3.27
2018-07-30T11:56:06.629Z,3.02
2018-07-30T12:04:41.880Z,3.72
2018-07-30T12:07:11.045Z,3.90
2018-07-30T12:09:40.330Z,3.10
2018-07-30T12:12:11.119Z,3.47
2018-07-30T12:26:52.919Z,3.42
2018-07-30T12:29:21.601Z,3.47
2018-07-30T12:31:50.275Z,3.60
2018-07-30T12:34:19.061Z,3.25
2018-07-30T12:36:48.658Z,3.45
2018-07-30T12:39:17.316Z,3.60
2018-07-30T12:41:45.912Z,3.40
2018-07-30T12:44:14.645Z,3.17
2018-07-30T12:46:43.248Z,3.40
2018-07-30T12:49:11.803Z,3.70
2018-07-30T12:51:40.578Z,3.50
2018-07-30T12:54:09.215Z,3.40
2018-07-30T12:56:47.599Z,3.58
2018-07-30T13:29:49.439Z,3.58
2018-07-30T13:32:23.400Z,3.17
2018-07-30T13:47:13.459Z,3.35
2018-07-30T13:49:44.792Z,3.20
2018-07-30T13:52:17.201Z,3.20
2018-07-30T13:54:47.281Z,3.40
2018-07-30T14:09:23.108Z,3.50
2018-07-30T14:15:06.101Z,3.67
2018-07-30T14:17:35.663Z,3.45
2018-07-30T14:20:19.057Z,3.30
2018-07-30T14:23:02.980Z,3.35
2018-07-30T14:31:34.631Z,2.90
2018-07-30T14:34:19.411Z,3.08
2018-07-30T14:48:41.724Z,3.62
2018-07-30T14:56:49.263Z,3.27
2018-07-30T15:28:33.780Z,3.40
2018-07-30T15:31:20.260Z,3.33
2018-07-30T15:33:59.005Z,3.30
2018-07-30T15:38:56.483Z,3.80
2018-07-30T15:44:15.671Z,3.30
2018-07-30T15:47:04.463Z,3.40
2018-07-30T16:04:03.367Z,3.45
2018-07-30T16:12:40.552Z,3.12
2018-07-30T16:15:09.793Z,3.45
2018-07-30T16:17:38.347Z,3.37
2018-07-30T16:20:07.742Z,3.10
2018-07-30T16:22:36.347Z,3.60
2018-07-30T16:25:06.100Z,2.95
2018-07-30T16:27:34.646Z,3.10
2018-07-30T16:30:03.304Z,3.12
2018-07-30T16:32:37.626Z,2.95
2018-07-30T16:35:06.761Z,4.05
2018-07-30T16:37:35.461Z,3.20
2018-07-30T16:40:04.683Z,3.33
2018-07-30T16:42:33.422Z,3.80
2018-07-30T16:45:02.510Z,2.85
2018-07-30T16:47:31.115Z,3.08
2018-07-30T16:49:59.645Z,3.50
2018-07-30T16:52:28.294Z,3.45
2018-07-30T16:54:57.020Z,3.20
2018-07-30T16:57:25.540Z,3.58
2018-07-30T16:59:54.128Z,3.75
2018-07-30T17:02:22.767Z,3.08
2018-07-30T17:04:51.362Z,2.62
2018-07-30T17:07:19.962Z,3.20
2018-07-30T17:09:48.539Z,3.85
2018-07-30T17:12:17.040Z,3.52
2018-07-30T17:14:45.229Z,3.67
2018-07-30T17:17:13.771Z,3.52
2018-07-30T17:19:42.221Z,3.42
2018-07-30T17:22:11.111Z,3.30
2018-07-30T17:24:39.531Z,3.65
2018-07-30T17:27:07.640Z,3.05
2018-07-30T17:29:36.683Z,3.70
2018-07-30T17:32:05.127Z,4.20
2018-07-30T17:34:33.585Z,3.42
2018-07-30T17:37:02.082Z,3.17
2018-07-30T17:39:30.552Z,3.45
2018-07-30T17:41:59.037Z,3.40
2018-07-30T17:44:27.458Z,3.47
2018-07-30T17:46:55.918Z,3.50
2018-07-30T17:49:24.375Z,3.47
2018-07-30T17:51:52.850Z,3.95
2018-07-30T17:54:21.656Z,3.27
2018-07-30T17:56:50.191Z,3.20
2018-07-30T17:59:18.401Z,2.85
2018-07-30T18:01:46.907Z,3.50
2018-07-30T18:04:15.405Z,3.17
2018-07-30T18:06:43.866Z,3.72
2018-07-30T18:09:12.368Z,3.67
2018-07-30T18:11:40.927Z,3.30
2018-07-30T18:14:09.551Z,3.45
2018-07-30T18:16:38.057Z,3.05
2018-07-30T18:19:07.109Z,3.50
2018-07-30T18:21:35.518Z,3.77
2018-07-30T18:24:03.975Z,3.70
2018-07-30T18:26:32.437Z,3.87
2018-07-30T18:29:00.893Z,3.55
2018-07-30T18:31:29.429Z,3.08
2018-07-30T18:33:57.905Z,3.20
2018-07-30T18:36:26.063Z,3.42
2018-07-30T18:38:54.533Z,3.12
2018-07-30T18:41:23.023Z,3.40
2018-07-30T18:43:51.518Z,3.02
2018-07-30T18:46:19.693Z,2.80
2018-07-30T18:48:48.169Z,3.20
2018-07-30T18:51:16.655Z,3.75
2018-07-30T18:53:45.185Z,3.42
2018-07-30T18:56:13.733Z,4.40
2018-07-30T18:58:43.144Z,5.20
2018-07-30T19:01:11.723Z,7.00
2018-07-30T19:03:40.367Z,5.55
2018-07-30T19:06:09.015Z,6.35
2018-07-30T19:08:37.640Z,8.55
2018-07-30T19:11:05.887Z,4.78
2018-07-30T19:13:34.414Z,4.45
2018-07-30T19:16:02.976Z,4.25
2018-07-30T19:18:31.418Z,3.87
2018-07-30T19:20:59.903Z,3.87
2018-07-30T19:23:28.359Z,3.75
2018-07-30T19:25:57.298Z,4.30
2018-07-30T19:28:26.069Z,4.53
2018-07-30T19:30:54.579Z,5.53
2018-07-30T19:33:22.997Z,5.20
2018-07-30T19:35:51.750Z,4.95
2018-07-30T19:38:20.437Z,5.00
2018-07-30T19:40:48.930Z,5.15
2018-07-30T19:43:17.383Z,3.95
2018-07-30T19:45:45.994Z,4.17
2018-07-30T19:48:14.469Z,4.35
2018-07-30T19:50:42.935Z,5.12
2018-07-30T19:53:12.471Z,4.87
2018-07-30T19:55:40.935Z,4.50
2018-07-30T19:58:09.604Z,4.85
2018-07-30T20:00:37.895Z,4.90
2018-07-30T20:03:06.393Z,5.95
2018-07-30T20:05:34.557Z,6.55
2018-07-30T20:08:02.772Z,6.15
2018-07-30T20:10:31.260Z,6.08
2018-07-30T20:13:00.437Z,6.03
2018-07-30T20:15:28.936Z,5.37
2018-07-30T20:17:58.365Z,6.67
2018-07-30T20:20:26.941Z,7.55
2018-07-30T20:22:55.403Z,9.60
2018-07-30T20:25:23.828Z,7.47
2018-07-30T20:27:52.298Z,6.22
2018-07-30T20:30:20.802Z,5.72
2018-07-30T20:32:49.295Z,6.42
2018-07-30T20:35:17.819Z,6.92
2018-07-30T20:37:46.351Z,6.58
2018-07-30T20:40:14.872Z,7.87
2018-07-30T20:42:43.402Z,8.05
2018-07-30T20:45:11.916Z,8.48
2018-07-30T20:47:40.345Z,8.20
2018-07-30T20:50:08.804Z,12.05
2018-07-30T20:52:37.301Z,10.05
2018-07-30T20:55:05.843Z,7.75
2018-07-30T20:57:34.431Z,8.03
2018-07-30T21:00:02.949Z,6.00
2018-07-30T21:02:31.555Z,7.08
2018-07-30T21:04:59.695Z,5.47
2018-07-30T21:07:28.195Z,6.15
2018-07-30T21:09:56.731Z,4.45
2018-07-30T21:12:25.141Z,4.45
2018-07-30T21:14:53.637Z,4.80
2018-07-30T21:17:22.091Z,4.28
2018-07-30T21:19:50.597Z,4.87
2018-07-30T21:22:19.084Z,7.47
2018-07-30T21:24:47.538Z,10.70
2018-07-30T21:27:16.023Z,9.40
2018-07-30T21:29:44.445Z,9.25
2018-07-30T21:32:12.692Z,6.83
2018-07-30T21:34:42.298Z,7.17
2018-07-30T21:37:10.840Z,6.08
2018-07-30T21:39:39.342Z,4.65
2018-07-30T21:42:07.836Z,5.37
2018-07-30T21:44:36.288Z,5.25
2018-07-30T21:47:04.944Z,5.03
2018-07-30T21:49:33.383Z,5.00
2018-07-30T21:52:01.874Z,4.45
2018-07-30T21:54:30.361Z,4.80
2018-07-30T21:56:58.794Z,3.87
2018-07-30T21:59:27.271Z,3.90
2018-07-30T22:01:55.760Z,4.35
2018-07-30T22:04:24.262Z,4.20
2018-07-30T22:06:52.823Z,4.10
2018-07-30T22:09:21.510Z,5.45
2018-07-30T22:11:50.123Z,5.37
2018-07-30T22:14:18.674Z,4.42
2018-07-30T22:16:47.498Z,4.42
2018-07-30T22:19:16.006Z,3.90
2018-07-30T22:21:44.598Z,4.47
2018-07-30T22:24:13.193Z,4.62
2018-07-30T22:26:41.770Z,4.25
2018-07-30T22:29:10.290Z,4.08
2018-07-30T22:31:38.895Z,4.20
2018-07-30T22:34:07.110Z,4.45
2018-07-30T22:36:35.535Z,4.40
2018-07-30T22:39:06.095Z,4.25
2018-07-30T22:41:34.537Z,4.35
2018-07-30T22:44:03.028Z,4.05
2018-07-30T22:46:31.823Z,4.35
2018-07-30T22:49:00.387Z,4.37
2018-07-30T22:51:28.964Z,3.60
2018-07-30T22:53:57.669Z,4.58
2018-07-30T22:56:26.274Z,4.17
2018-07-30T22:58:54.879Z,3.55
2018-07-30T23:01:23.419Z,4.30
2018-07-30T23:03:51.606Z,4.25
2018-07-30T23:06:19.729Z,3.67
2018-07-30T23:08:48.184Z,4.30
2018-07-30T23:11:16.594Z,4.40
2018-07-30T23:13:44.994Z,4.17
2018-07-30T23:16:13.441Z,4.17
2018-07-30T23:18:41.964Z,4.50
2018-07-30T23:21:10.488Z,4.45
2018-07-30T23:23:38.951Z,3.95
2018-07-30T23:26:07.420Z,4.58
2018-07-30T23:28:35.873Z,4.55
2018-07-30T23:31:04.292Z,4.00
2018-07-30T23:33:32.766Z,4.20
2018-07-30T23:36:00.887Z,4.03
2018-07-30T23:38:29.322Z,4.33
2018-07-30T23:40:57.750Z,3.98
2018-07-30T23:43:26.158Z,4.15
2018-07-30T23:45:54.568Z,4.33
2018-07-30T23:48:23.026Z,3.80
2018-07-30T23:50:51.426Z,4.03
2018-07-30T23:53:19.880Z,4.17
2018-07-30T23:55:47.999Z,4.67
2018-07-30T23:58:16.538Z,4.83
